Time;durP1;ratioP1;P1;durP2;ratioP2;P2;SDS_P1;SDS_P2;PMS_P1;PMS_P2;Temp;Humidity;BMP_temperature;BMP_pressure;BME280_temperature;BME280_humidity;BME280_pressure;Samples;Min_cycle;Max_cycle;Signal;HPM_P1;HPM_P2
2022/05/10 00:00:35;;;;;;;;;;;;;;;24.72;36.96;99784.69;4483221;32;34539;-82
2022/05/10 00:03:03;;;;;;;;;;;;;;;24.55;37.58;99779.09;4483317;32;35135;-83
2022/05/10 00:05:32;;;;;;;;;;;;;;;24.93;36.63;99785.72;4469139;32;33650;-83
2022/05/10 00:08:00;;;;;;;;;;;;;;;24.93;36.72;99783.09;4469037;32;33897;-83
2022/05/10 00:10:27;;;;;;;;;;;;;;;24.96;36.79;99785.59;4468734;32;34082;-82
2022/05/10 00:12:57;;;;;;;;;;;;;;;24.85;36.80;99779.81;4483315;32;34406;-84
2022/05/10 00:15:24;;;;;;;;;;;;;;;24.55;37.16;99780.00;4469295;32;33668;-83
2022/05/10 00:17:51;;;;;;;;;;;;;;;24.49;37.21;99781.06;4482897;32;34073;-83
2022/05/10 00:20:21;;;;;;;;;;;;;;;24.63;37.08;99779.72;4483239;32;34499;-83
2022/05/10 00:22:48;;;;;;;;;;;;;;;24.50;37.34;99784.56;4469267;32;34292;-83
2022/05/10 00:25:17;;;;;;;;;;;;;;;24.57;37.16;99772.84;4483334;32;33597;-83
2022/05/10 00:27:44;;;;;;;;;;;;;;;24.90;36.67;99778.75;4482549;32;34129;-83
2022/05/10 00:30:12;;;;;;;;;;;;;;;24.92;36.58;99783.97;4483289;32;34118;-83
2022/05/10 00:32:40;;;;;;;;;;;;;;;24.95;36.35;99775.91;4468827;32;34910;-82
2022/05/10 00:35:11;;;;;;;;;;;;;;;24.93;36.31;99775.13;4483193;32;34396;-84
2022/05/10 00:37:38;;;;;;;;;;;;;;;25.00;36.09;99766.00;4468889;32;34052;-82
2022/05/10 00:40:06;;;;;;;;;;;;;;;24.89;36.31;99768.16;4483237;32;33511;-85
2022/05/10 00:42:36;;;;;;;;;;;;;;;24.86;36.46;99755.06;4482982;32;34667;-84
2022/05/10 00:45:05;;;;;;;;;;;;;;;24.81;36.72;99760.50;4468708;32;34242;-84
2022/05/10 00:47:38;;;;;;;;;;;;;;;24.95;36.50;99752.91;4468810;32;34168;-84
2022/05/10 00:50:12;;;;;;;;;;;;;;;24.76;36.94;99755.34;4469047;32;34040;-84
2022/05/10 00:52:47;;;;;;;;;;;;;;;24.80;36.63;99757.91;4482976;32;34584;-84
2022/05/10 00:55:17;;;;;;;;;;;;;;;24.70;36.68;99752.94;4482387;32;33610;-82
2022/05/10 00:57:54;;;;;;;;;;;;;;;24.48;36.98;99752.84;4482860;32;35633;-83
2022/05/10 01:00:23;;;;;;;;;;;;;;;24.53;36.65;99752.66;4468439;32;34428;-82
2022/05/10 01:03:11;;;;;;;;;;;;;;;24.57;36.75;99746.34;4467244;32;34487;-84
2022/05/10 01:05:54;;;;;;;;;;;;;;;24.50;36.76;99750.13;4467201;32;34455;-84
2022/05/10 01:08:22;;;;;;;;;;;;;;;24.64;36.31;99747.00;4472074;32;35012;-84
2022/05/10 01:10:49;;;;;;;;;;;;;;;24.61;36.25;99740.00;4482760;32;34346;-84
2022/05/10 01:13:21;;;;;;;;;;;;;;;24.43;36.43;99738.00;4482605;32;34514;-84
2022/05/10 01:15:54;;;;;;;;;;;;;;;24.47;36.33;99736.97;4468843;32;33887;-84
2022/05/10 01:18:22;;;;;;;;;;;;;;;24.32;36.63;99735.72;4468171;32;33302;-84
2022/05/10 01:20:49;;;;;;;;;;;;;;;24.19;36.75;99731.72;4468558;32;33999;-84
2022/05/10 01:23:32;;;;;;;;;;;;;;;24.24;36.74;99727.13;4468567;32;34463;-83
2022/05/10 01:26:02;;;;;;;;;;;;;;;24.41;36.38;99723.94;4482509;32;34575;-84
2022/05/10 01:28:30;;;;;;;;;;;;;;;23.51;38.32;99725.09;4467886;32;35125;-84
2022/05/10 01:30:59;;;;;;;;;;;;;;;24.15;37.22;99722.16;4468354;32;34124;-83
2022/05/10 01:33:35;;;;;;;;;;;;;;;24.28;37.15;99732.31;4468422;32;34221;-83
2022/05/10 01:36:05;;;;;;;;;;;;;;;24.25;36.82;99719.16;4468297;32;33280;-84
2022/05/10 01:38:33;;;;;;;;;;;;;;;24.33;36.79;99723.31;4482395;32;34352;-84
2022/05/10 01:41:09;;;;;;;;;;;;;;;24.19;36.94;99722.00;4483966;32;35141;-84
2022/05/10 01:43:55;;;;;;;;;;;;;;;24.07;37.35;99719.78;4470170;32;34043;-83
2022/05/10 01:46:27;;;;;;;;;;;;;;;24.14;37.48;99726.59;4484561;32;34451;-84
2022/05/10 01:48:58;;;;;;;;;;;;;;;24.30;37.26;99718.13;4483984;32;34320;-83
2022/05/10 01:51:33;;;;;;;;;;;;;;;24.17;37.56;99715.00;4470201;32;34401;-83
2022/05/10 01:54:01;;;;;;;;;;;;;;;24.41;37.14;99719.50;4484059;32;34399;-82
2022/05/10 01:56:28;;;;;;;;;;;;;;;24.45;37.03;99715.84;4470107;32;33680;-84
2022/05/10 01:58:56;;;;;;;;;;;;;;;24.08;37.64;99710.91;4469925;32;34304;-84
2022/05/10 02:01:24;;;;;;;;;;;;;;;24.02;38.02;99711.13;4484214;32;35330;-84
2022/05/10 02:04:01;;;;;;;;;;;;;;;23.73;38.49;99715.59;4470262;32;34128;-82
2022/05/10 02:06:39;;;;;;;;;;;;;;;23.90;37.65;99711.50;4483880;32;34347;-82
2022/05/10 02:09:06;;;;;;;;;;;;;;;24.12;37.74;99706.38;4484320;32;34165;-83
2022/05/10 02:11:36;;;;;;;;;;;;;;;23.90;37.94;99704.44;4484084;32;34454;-83
2022/05/10 02:14:09;;;;;;;;;;;;;;;24.02;37.71;99703.19;4484060;32;35230;-84
2022/05/10 02:16:41;;;;;;;;;;;;;;;24.27;37.51;99712.00;4484233;32;34287;-83
2022/05/10 02:19:14;;;;;;;;;;;;;;;24.40;36.73;99711.63;4470361;32;34052;-83
2022/05/10 02:21:47;;;;;;;;;;;;;;;23.84;38.02;99707.28;4484047;32;34148;-83
2022/05/10 02:24:49;;;;;;;;;;;;;;;23.95;37.81;99712.25;4484137;32;34390;-82
2022/05/10 02:27:19;;;;;;;;;;;;;;;23.68;38.09;99706.06;4434099;32;33466;-82
2022/05/10 02:29:47;;;;;;;;;;;;;;;23.91;37.67;99705.31;4475081;32;33977;-83
2022/05/10 02:35:01;;;;;;;;;;;;;;;24.13;36.96;99703.69;4483567;32;35335;-84
2022/05/10 02:37:29;;;;;;;;;;;;;;;23.93;37.06;99700.81;4470007;32;32875;-83
2022/05/10 02:39:56;;;;;;;;;;;;;;;24.13;36.56;99708.97;4483908;32;33991;-83
2022/05/10 02:42:23;;;;;;;;;;;;;;;23.96;36.93;99698.06;4484114;32;34686;-83
2022/05/10 02:44:54;;;;;;;;;;;;;;;23.91;37.10;99692.09;4469865;32;34314;-84
2022/05/10 02:47:29;;;;;;;;;;;;;;;23.88;37.26;99692.19;4470017;32;34544;-84
2022/05/10 02:49:57;;;;;;;;;;;;;;;23.87;37.24;99696.59;4483922;32;35045;-84
2022/05/10 02:52:24;;;;;;;;;;;;;;;23.54;37.64;99693.25;4483039;32;35250;-84
2022/05/10 02:55:10;;;;;;;;;;;;;;;23.05;38.62;99700.03;4484012;32;34564;-84
2022/05/10 02:57:37;;;;;;;;;;;;;;;23.31;37.93;99696.59;4466136;32;33174;-83
2022/05/10 03:00:07;;;;;;;;;;;;;;;23.12;38.22;99706.03;4484127;32;33853;-84
2022/05/10 03:02:37;;;;;;;;;;;;;;;23.45;37.62;99704.09;4483764;32;34244;-83
2022/05/10 03:05:06;;;;;;;;;;;;;;;23.55;37.39;99697.59;4468950;32;34384;-83
2022/05/10 03:07:33;;;;;;;;;;;;;;;23.25;37.89;99695.00;4483830;32;33026;-82
2022/05/10 03:10:01;;;;;;;;;;;;;;;23.37;37.65;99695.53;4472502;32;34049;-83
2022/05/10 03:12:29;;;;;;;;;;;;;;;23.10;38.05;99692.81;4465510;32;34839;-84
2022/05/10 03:14:57;;;;;;;;;;;;;;;22.86;38.52;99698.81;4482776;32;34193;-82
2022/05/10 03:17:25;;;;;;;;;;;;;;;22.81;38.73;99704.25;4468371;32;32059;-83
2022/05/10 03:19:55;;;;;;;;;;;;;;;22.95;38.53;99701.22;4454343;32;34628;-83
2022/05/10 03:22:22;;;;;;;;;;;;;;;22.30;39.90;99700.31;4468079;32;35248;-83
2022/05/10 03:24:49;;;;;;;;;;;;;;;22.27;40.06;99699.53;4468304;32;34323;-82
2022/05/10 03:27:17;;;;;;;;;;;;;;;22.10;40.22;99707.88;4482543;31;33805;-83
2022/05/10 03:29:45;;;;;;;;;;;;;;;21.76;41.18;99702.59;4483634;32;34348;-82
2022/05/10 03:32:12;;;;;;;;;;;;;;;21.98;40.39;99705.56;4483784;32;34900;-84
2022/05/10 03:34:57;;;;;;;;;;;;;;;21.78;41.39;99706.03;4483394;32;34496;-84
2022/05/10 03:37:25;;;;;;;;;;;;;;;21.82;41.13;99707.69;4483172;32;34490;-84
2022/05/10 03:39:53;;;;;;;;;;;;;;;22.19;40.36;99701.53;4483583;32;34961;-84
2022/05/10 03:42:20;;;;;;;;;;;;;;;22.37;39.94;99705.47;4469371;32;34468;-82
2022/05/10 03:44:52;;;;;;;;;;;;;;;22.15;40.65;99711.28;4483407;32;35172;-83
2022/05/10 03:47:20;;;;;;;;;;;;;;;22.56;39.85;99702.28;4483074;32;33128;-83
2022/05/10 03:49:48;;;;;;;;;;;;;;;22.24;40.33;99700.50;4469035;32;35045;-82
2022/05/10 03:52:17;;;;;;;;;;;;;;;22.34;40.23;99707.25;4483269;32;34095;-83
2022/05/10 03:54:46;;;;;;;;;;;;;;;22.33;40.20;99705.53;4483151;32;34273;-83
2022/05/10 03:57:14;;;;;;;;;;;;;;;23.09;38.89;99693.75;4483210;32;34364;-84
2022/05/10 03:59:44;;;;;;;;;;;;;;;22.19;40.51;99702.38;4483424;32;34954;-83
2022/05/10 04:02:12;;;;;;;;;;;;;;;22.91;39.16;99695.13;4482833;32;35155;-83
2022/05/10 04:04:40;;;;;;;;;;;;;;;23.06;39.04;99688.53;4481752;32;33956;-83
2022/05/10 04:07:09;;;;;;;;;;;;;;;22.58;40.00;99689.03;4482887;32;33603;-82
2022/05/10 04:09:36;;;;;;;;;;;;;;;23.14;39.07;99693.59;4480178;32;34239;-83
2022/05/10 04:12:04;;;;;;;;;;;;;;;22.86;39.87;99697.03;4482450;32;34334;-83
2022/05/10 04:14:31;;;;;;;;;;;;;;;23.35;39.03;99692.09;4468579;32;34826;-83
2022/05/10 04:16:58;;;;;;;;;;;;;;;23.82;38.39;99692.38;4482732;32;33755;-83
2022/05/10 04:19:26;;;;;;;;;;;;;;;24.21;37.77;99698.13;4483152;32;33677;-84
2022/05/10 04:21:53;;;;;;;;;;;;;;;24.43;37.60;99703.53;4479746;32;34387;-82
2022/05/10 04:24:20;;;;;;;;;;;;;;;24.81;36.44;99702.16;4457451;32;785783;-83
2022/05/10 04:26:47;;;;;;;;;;;;;;;24.94;36.28;99699.94;4468553;32;33680;-83
2022/05/10 04:29:15;;;;;;;;;;;;;;;25.07;35.79;99702.97;4475425;31;34297;-83
2022/05/10 04:31:42;;;;;;;;;;;;;;;25.18;35.86;99701.66;4484280;31;34758;-82
2022/05/10 04:34:10;;;;;;;;;;;;;;;25.43;34.51;99706.03;4480740;32;35196;-83
2022/05/10 04:36:37;;;;;;;;;;;;;;;24.78;36.92;99710.25;4480807;32;33210;-83
2022/05/10 04:39:04;;;;;;;;;;;;;;;25.12;36.12;99701.91;4466021;32;33893;-83
2022/05/10 04:41:33;;;;;;;;;;;;;;;25.77;35.44;99712.66;4482918;32;34316;-83
2022/05/10 04:44:00;;;;;;;;;;;;;;;25.62;36.12;99709.69;4468229;32;34461;-83
2022/05/10 04:46:28;;;;;;;;;;;;;;;25.34;36.00;99712.53;4482050;32;34354;-84
2022/05/10 04:48:56;;;;;;;;;;;;;;;25.62;35.43;99722.94;4483031;32;33601;-84
2022/05/10 04:51:24;;;;;;;;;;;;;;;25.20;35.00;99725.50;4467997;32;34226;-83
2022/05/10 04:53:53;;;;;;;;;;;;;;;24.30;37.19;99724.28;4468510;32;33779;-83
2022/05/10 04:56:21;;;;;;;;;;;;;;;24.53;35.98;99726.16;4467625;32;33106;-82
2022/05/10 04:58:48;;;;;;;;;;;;;;;25.68;36.01;99728.03;4458092;32;34036;-81
2022/05/10 05:01:16;;;;;;;;;;;;;;;26.14;36.04;99720.00;4478695;32;34180;-81
2022/05/10 05:03:45;;;;;;;;;;;;;;;25.77;34.37;99726.78;4480211;32;34505;-83
2022/05/10 05:06:12;;;;;;;;;;;;;;;25.62;34.80;99722.94;4474498;32;33084;-81
2022/05/10 05:08:41;;;;;;;;;;;;;;;26.11;35.24;99720.97;4478894;32;34135;-82
2022/05/10 05:11:08;;;;;;;;;;;;;;;26.91;33.32;99729.00;4491140;31;33996;-81
2022/05/10 05:13:35;;;;;;;;;;;;;;;26.34;32.90;99727.97;4465180;32;34638;-83
2022/05/10 05:16:03;;;;;;;;;;;;;;;26.79;32.19;99726.91;4467353;32;33634;-81
2022/05/10 05:18:30;;;;;;;;;;;;;;;26.88;30.88;99728.28;4482321;32;34115;-82
2022/05/10 05:20:57;;;;;;;;;;;;;;;26.50;32.24;99733.50;4482754;32;34179;-82
2022/05/10 05:23:25;;;;;;;;;;;;;;;26.77;32.64;99728.75;4480944;32;35277;-83
2022/05/10 05:25:55;;;;;;;;;;;;;;;25.97;31.87;99739.28;4482674;32;33206;-83
2022/05/10 05:28:23;;;;;;;;;;;;;;;26.15;32.28;99735.84;4482371;32;33678;-83
2022/05/10 05:30:50;;;;;;;;;;;;;;;25.84;33.09;99736.25;4482326;32;34966;-84
2022/05/10 05:33:18;;;;;;;;;;;;;;;25.35;34.61;99745.28;4482580;32;34061;-83
2022/05/10 05:35:45;;;;;;;;;;;;;;;25.67;33.37;99750.19;4482531;32;34591;-82
2022/05/10 05:38:12;;;;;;;;;;;;;;;24.46;34.82;99745.84;4482367;32;34624;-84
2022/05/10 05:40:40;;;;;;;;;;;;;;;25.49;33.34;99745.59;4480142;32;34198;-82
2022/05/10 05:43:08;;;;;;;;;;;;;;;25.67;34.13;99747.53;4474463;32;35260;-82
2022/05/10 05:45:36;;;;;;;;;;;;;;;24.77;35.66;99753.56;4467953;32;32793;-82
2022/05/10 05:48:08;;;;;;;;;;;;;;;26.12;33.91;99746.59;4482262;32;33877;-82
2022/05/10 05:50:35;;;;;;;;;;;;;;;25.45;34.64;99752.81;4482144;32;35194;-82
2022/05/10 05:53:04;;;;;;;;;;;;;;;24.49;35.59;99749.25;4482078;32;34521;-81
2022/05/10 05:55:31;;;;;;;;;;;;;;;24.25;36.03;99755.38;4452669;32;33787;-82
2022/05/10 05:57:58;;;;;;;;;;;;;;;24.07;37.23;99756.00;4466596;32;34009;-82
2022/05/10 06:00:26;;;;;;;;;;;;;;;24.62;35.90;99749.69;4466499;32;34278;-83
2022/05/10 06:02:55;;;;;;;;;;;;;;;25.42;34.98;99750.28;4467095;32;34540;-82
2022/05/10 06:05:23;;;;;;;;;;;;;;;24.83;34.37;99747.19;4481812;32;33772;-85
2022/05/10 06:07:50;;;;;;;;;;;;;;;25.10;34.16;99751.50;4481623;32;34177;-83
2022/05/10 06:10:18;;;;;;;;;;;;;;;25.62;32.83;99746.84;4478138;32;34097;-82
2022/05/10 06:12:45;;;;;;;;;;;;;;;24.09;34.79;99757.66;4464814;32;34384;-82
2022/05/10 06:15:13;;;;;;;;;;;;;;;24.83;34.31;99760.47;4466527;32;34495;-82
2022/05/10 06:17:41;;;;;;;;;;;;;;;25.12;33.87;99751.47;4464667;32;34198;-82
2022/05/10 06:20:09;;;;;;;;;;;;;;;25.34;33.79;99759.47;4469146;32;34078;-81
2022/05/10 06:22:36;;;;;;;;;;;;;;;25.38;33.49;99751.34;4480212;32;34599;-82
2022/05/10 06:25:08;;;;;;;;;;;;;;;25.61;33.12;99761.06;4463212;32;33398;-82
2022/05/10 06:27:36;;;;;;;;;;;;;;;24.63;34.53;99762.03;4466376;32;34186;-84
2022/05/10 06:30:03;;;;;;;;;;;;;;;24.55;34.38;99765.84;4482906;32;34239;-82
2022/05/10 06:32:31;;;;;;;;;;;;;;;25.38;33.18;99766.38;4468464;32;34118;-84
2022/05/10 06:34:59;;;;;;;;;;;;;;;26.32;32.48;99766.16;4467763;32;33110;-83
2022/05/10 06:40:14;;;;;;;;;;;;;;;25.00;32.90;99760.69;4486268;31;34529;-84
2022/05/10 06:42:42;;;;;;;;;;;;;;;25.43;32.13;99764.44;4480565;31;35152;-81
2022/05/10 06:45:11;;;;;;;;;;;;;;;25.91;31.73;99766.97;4482866;32;33036;-82
2022/05/10 06:47:39;;;;;;;;;;;;;;;26.79;29.47;99765.94;4467557;32;34774;-84
2022/05/10 06:50:08;;;;;;;;;;;;;;;26.31;30.06;99756.47;4480626;32;33951;-83
2022/05/10 06:52:36;;;;;;;;;;;;;;;26.67;28.43;99754.91;4469102;32;35194;-84
2022/05/10 06:55:04;;;;;;;;;;;;;;;27.49;26.90;99744.09;4476438;32;33313;-86
2022/05/10 06:57:32;;;;;;;;;;;;;;;24.65;31.15;99761.97;4476881;32;34281;-84
2022/05/10 07:00:00;;;;;;;;;;;;;;;26.02;28.73;99755.88;4468549;32;33980;-86
2022/05/10 07:02:27;;;;;;;;;;;;;;;25.92;26.66;99752.75;4481767;32;34475;-86
2022/05/10 07:04:56;;;;;;;;;;;;;;;26.74;26.92;99759.94;4467370;32;33275;-85
2022/05/10 07:07:24;;;;;;;;;;;;;;;26.58;28.46;99757.09;4468035;32;33622;-85
2022/05/10 07:09:52;;;;;;;;;;;;;;;26.60;28.29;99757.91;4464950;32;33018;-86
2022/05/10 07:12:19;;;;;;;;;;;;;;;27.27;27.45;99754.03;4478387;32;34616;-86
2022/05/10 07:14:46;;;;;;;;;;;;;;;27.93;26.62;99751.78;4483198;32;33420;-86
2022/05/10 07:17:14;;;;;;;;;;;;;;;26.48;28.50;99764.63;4481742;32;34285;-85
2022/05/10 07:19:41;;;;;;;;;;;;;;;26.05;28.97;99755.75;4481232;32;35181;-86
2022/05/10 07:22:08;;;;;;;;;;;;;;;26.44;28.98;99758.56;4482716;32;34603;-85
2022/05/10 07:24:36;;;;;;;;;;;;;;;25.52;30.98;99753.44;4482799;32;33771;-87
2022/05/10 07:27:03;;;;;;;;;;;;;;;25.08;31.51;99760.41;4476705;32;33877;-88
2022/05/10 07:29:30;;;;;;;;;;;;;;;24.87;31.63;99765.59;4483316;32;33708;-87
2022/05/10 07:31:58;;;;;;;;;;;;;;;25.63;31.47;99756.53;4483193;32;34343;-85
2022/05/10 07:34:25;;;;;;;;;;;;;;;26.74;29.12;99762.59;4468616;32;33235;-87
2022/05/10 07:36:52;;;;;;;;;;;;;;;27.32;28.49;99755.56;4482397;32;34759;-85
2022/05/10 07:39:21;;;;;;;;;;;;;;;26.45;28.94;99754.09;4473881;32;33834;-87
2022/05/10 07:41:54;;;;;;;;;;;;;;;26.09;29.18;99765.34;4483146;32;35404;-86
2022/05/10 07:44:22;;;;;;;;;;;;;;;26.25;29.37;99762.03;4481983;32;33639;-83
2022/05/10 07:46:49;;;;;;;;;;;;;;;27.32;27.93;99754.69;4466151;32;35166;-86
2022/05/10 07:49:17;;;;;;;;;;;;;;;26.79;28.39;99765.94;4481941;32;33677;-82
2022/05/10 07:51:44;;;;;;;;;;;;;;;27.73;27.56;99759.81;4480564;32;34430;-85
2022/05/10 07:54:11;;;;;;;;;;;;;;;26.17;29.63;99763.22;4481492;32;34047;-84
2022/05/10 07:56:40;;;;;;;;;;;;;;;26.80;28.05;99760.56;4467459;32;34881;-84
2022/05/10 07:59:08;;;;;;;;;;;;;;;25.00;30.36;99761.59;4483235;32;34422;-83
2022/05/10 08:01:35;;;;;;;;;;;;;;;24.92;30.13;99765.41;4459630;32;34565;-82
2022/05/10 08:04:04;;;;;;;;;;;;;;;26.95;29.10;99753.69;4468196;32;33241;-83
2022/05/10 08:06:31;;;;;;;;;;;;;;;26.42;28.82;99756.87;4482360;32;35130;-83
2022/05/10 08:08:58;;;;;;;;;;;;;;;26.98;28.76;99758.88;4482226;32;35732;-83
2022/05/10 08:11:26;;;;;;;;;;;;;;;26.90;28.21;99758.34;4483390;32;35268;-84
2022/05/10 08:13:53;;;;;;;;;;;;;;;26.03;29.96;99759.44;4481193;32;33635;-83
2022/05/10 08:16:20;;;;;;;;;;;;;;;25.35;30.60;99762.06;4469726;32;34522;-83
2022/05/10 08:18:49;;;;;;;;;;;;;;;25.37;30.63;99754.03;4467664;32;34119;-82
2022/05/10 08:21:17;;;;;;;;;;;;;;;25.99;29.38;99750.72;4467765;32;34269;-83
2022/05/10 08:23:45;;;;;;;;;;;;;;;25.61;30.29;99750.44;4472604;32;33241;-82
2022/05/10 08:26:12;;;;;;;;;;;;;;;26.65;29.03;99754.09;4465246;32;34339;-82
2022/05/10 08:28:39;;;;;;;;;;;;;;;27.41;28.09;99741.78;4454042;32;34231;-83
2022/05/10 08:31:07;;;;;;;;;;;;;;;27.17;28.62;99748.28;4467604;32;33638;-83
2022/05/10 08:33:36;;;;;;;;;;;;;;;28.44;26.76;99739.44;4470107;32;34227;-81
2022/05/10 08:36:04;;;;;;;;;;;;;;;27.54;27.66;99739.44;4470615;32;34883;-83
2022/05/10 08:38:31;;;;;;;;;;;;;;;27.06;28.59;99740.75;4474906;32;33973;-81
2022/05/10 08:41:12;;;;;;;;;;;;;;;26.42;29.22;99748.91;4464420;32;34723;-81
2022/05/10 08:43:41;;;;;;;;;;;;;;;27.56;27.63;99737.53;4467357;32;34399;-82
2022/05/10 08:46:09;;;;;;;;;;;;;;;26.76;28.58;99742.13;4482841;32;34221;-82
2022/05/10 08:48:37;;;;;;;;;;;;;;;25.87;30.26;99744.09;4475627;32;35221;-82
2022/05/10 08:51:04;;;;;;;;;;;;;;;25.74;29.98;99737.53;4480059;32;34674;-82
2022/05/10 08:53:32;;;;;;;;;;;;;;;25.20;31.79;99752.03;4468869;32;33325;-81
2022/05/10 08:56:18;;;;;;;;;;;;;;;26.70;29.28;99753.91;4473744;32;34238;-82
2022/05/10 08:58:51;;;;;;;;;;;;;;;27.83;27.63;99734.50;4467344;32;33986;-82
2022/05/10 09:01:42;;;;;;;;;;;;;;;28.07;27.99;99735.97;4472321;32;34286;-82
2022/05/10 09:04:09;;;;;;;;;;;;;;;27.13;27.64;99739.56;4460005;32;34949;-82
2022/05/10 09:06:44;;;;;;;;;;;;;;;28.25;27.01;99736.81;4470569;32;34222;-81
2022/05/10 09:09:16;;;;;;;;;;;;;;;28.06;26.22;99731.56;4457820;32;34656;-83
2022/05/10 09:12:11;;;;;;;;;;;;;;;27.85;26.75;99729.97;4467233;32;34585;-83
2022/05/10 09:14:44;;;;;;;;;;;;;;;27.54;26.60;99730.53;4457206;32;33728;-82
2022/05/10 09:17:11;;;;;;;;;;;;;;;27.87;26.57;99730.75;4459068;32;33718;-82
2022/05/10 09:19:39;;;;;;;;;;;;;;;27.54;26.43;99726.13;4467130;32;35264;-82
2022/05/10 09:22:29;;;;;;;;;;;;;;;27.28;26.58;99732.69;4466794;32;34520;-83
2022/05/10 09:24:57;;;;;;;;;;;;;;;27.60;27.45;99719.63;4467928;32;34470;-82
2022/05/10 09:27:28;;;;;;;;;;;;;;;28.28;27.79;99730.47;4467042;32;35158;-83
2022/05/10 09:29:55;;;;;;;;;;;;;;;29.09;25.27;99719.09;4452951;32;35213;-82
2022/05/10 09:35:19;;;;;;;;;;;;;;;29.36;24.67;99722.97;4476695;32;34267;-80
2022/05/10 09:37:51;;;;;;;;;;;;;;;29.58;25.59;99721.72;4476398;32;34586;-82
2022/05/10 09:40:18;;;;;;;;;;;;;;;28.75;25.23;99720.03;4463862;32;34274;-82
2022/05/10 09:42:47;;;;;;;;;;;;;;;28.76;25.38;99726.22;4470982;32;35072;-82
2022/05/10 09:45:27;;;;;;;;;;;;;;;28.84;25.85;99722.19;4463953;32;33684;-82
2022/05/10 09:48:15;;;;;;;;;;;;;;;27.94;27.01;99721.50;4458316;32;34533;-82
2022/05/10 09:50:47;;;;;;;;;;;;;;;28.86;26.57;99719.44;4479581;32;33263;-83
2022/05/10 09:53:18;;;;;;;;;;;;;;;28.62;27.31;99730.47;4466539;32;34393;-84
2022/05/10 09:55:52;;;;;;;;;;;;;;;28.96;26.23;99711.81;4480703;32;33425;-84
2022/05/10 09:58:27;;;;;;;;;;;;;;;29.16;26.55;99714.28;4480056;32;34156;-83
2022/05/10 10:00:56;;;;;;;;;;;;;;;28.90;26.41;99710.31;4453843;32;35079;-82
2022/05/10 10:03:37;;;;;;;;;;;;;;;28.90;26.22;99712.97;4466089;32;35208;-83
2022/05/10 10:06:18;;;;;;;;;;;;;;;29.00;26.21;99716.06;4468015;32;33486;-84
2022/05/10 10:08:47;;;;;;;;;;;;;;;28.12;27.77;99714.41;4465850;32;34962;-83
2022/05/10 10:11:20;;;;;;;;;;;;;;;28.30;28.35;99709.94;4466306;32;34093;-83
2022/05/10 10:13:52;;;;;;;;;;;;;;;29.19;27.28;99707.91;4467947;32;34320;-82
2022/05/10 10:16:30;;;;;;;;;;;;;;;28.01;27.55;99700.75;4467961;32;33579;-83
2022/05/10 10:19:06;;;;;;;;;;;;;;;28.11;29.59;99697.56;4465873;32;34808;-83
2022/05/10 10:21:37;;;;;;;;;;;;;;;27.99;28.04;99697.28;4466016;32;33645;-83
2022/05/10 10:24:04;;;;;;;;;;;;;;;28.93;26.83;99682.59;4467876;32;34424;-83
2022/05/10 10:26:32;;;;;;;;;;;;;;;29.46;26.63;99690.31;4478989;32;35819;-83
2022/05/10 10:29:07;;;;;;;;;;;;;;;28.80;27.16;99688.63;4468371;32;33945;-83
2022/05/10 10:31:41;;;;;;;;;;;;;;;28.12;27.66;99696.59;4482655;32;34409;-83
2022/05/10 10:34:11;;;;;;;;;;;;;;;27.01;28.83;99691.31;4483624;32;34562;-84
2022/05/10 10:36:46;;;;;;;;;;;;;;;27.42;29.25;99684.06;4475161;32;33808;-83
2022/05/10 10:39:17;;;;;;;;;;;;;;;28.17;27.93;99677.69;4454171;32;34189;-82
2022/05/10 10:41:56;;;;;;;;;;;;;;;29.05;27.34;99666.81;4454527;32;34493;-83
2022/05/10 10:44:27;;;;;;;;;;;;;;;29.03;27.03;99665.19;4454251;32;34523;-83
2022/05/10 10:47:13;;;;;;;;;;;;;;;28.64;27.69;99662.81;4454230;32;34197;-83
2022/05/10 10:49:54;;;;;;;;;;;;;;;29.36;26.90;99665.09;4468160;32;34181;-83
2022/05/10 10:52:23;;;;;;;;;;;;;;;29.88;25.08;99662.09;4454218;32;35266;-83
2022/05/10 10:54:50;;;;;;;;;;;;;;;30.06;24.61;99647.66;4468316;32;34073;-83
2022/05/10 10:57:29;;;;;;;;;;;;;;;30.32;24.86;99647.91;4468084;32;33626;-83
2022/05/10 11:00:03;;;;;;;;;;;;;;;29.19;25.37;99644.69;4468239;32;34061;-83
2022/05/10 11:02:40;;;;;;;;;;;;;;;29.24;25.87;99647.09;4467879;32;34053;-83
2022/05/10 11:05:28;;;;;;;;;;;;;;;29.05;27.21;99640.09;4468592;32;34651;-83
2022/05/10 11:08:13;;;;;;;;;;;;;;;28.55;26.73;99637.53;4454129;32;34281;-83
2022/05/10 11:10:44;;;;;;;;;;;;;;;29.69;26.62;99634.75;4468372;32;33948;-81
2022/05/10 11:13:30;;;;;;;;;;;;;;;30.00;25.50;99634.66;4470350;32;34115;-80
2022/05/10 11:16:03;;;;;;;;;;;;;;;28.64;26.52;99636.16;4483926;32;34626;-80
2022/05/10 11:18:30;;;;;;;;;;;;;;;27.86;27.62;99638.44;4483826;32;34559;-80
2022/05/10 11:21:24;;;;;;;;;;;;;;;27.85;28.82;99616.25;4483872;32;34295;-81
2022/05/10 11:23:58;;;;;;;;;;;;;;;27.36;28.96;99626.66;4454920;32;34414;-80
2022/05/10 11:26:42;;;;;;;;;;;;;;;26.87;29.77;99652.06;4454582;32;34510;-80
2022/05/10 11:29:30;;;;;;;;;;;;;;;26.46;31.84;99641.50;4442208;32;33634;-81
2022/05/10 11:32:02;;;;;;;;;;;;;;;26.42;30.13;99646.06;4483124;32;34126;-82
2022/05/10 11:34:39;;;;;;;;;;;;;;;25.57;31.15;99634.66;4469510;32;34582;-83
2022/05/10 11:37:06;;;;;;;;;;;;;;;25.39;29.85;99630.97;4467830;32;34472;-81
2022/05/10 11:39:43;;;;;;;;;;;;;;;24.86;32.16;99633.91;4467910;32;33176;-85
2022/05/10 11:42:26;;;;;;;;;;;;;;;24.47;32.53;99636.25;4468150;32;34130;-85
2022/05/10 11:45:09;;;;;;;;;;;;;;;23.29;36.07;99646.38;4454188;32;34512;-85
2022/05/10 11:47:59;;;;;;;;;;;;;;;22.93;40.30;99640.44;4470753;32;35047;-85
2022/05/10 11:50:28;;;;;;;;;;;;;;;23.92;41.24;99649.66;4467355;32;34077;-85
2022/05/10 11:53:21;;;;;;;;;;;;;;;22.85;43.36;99662.72;4465334;32;33782;-85
2022/05/10 11:55:51;;;;;;;;;;;;;;;23.18;42.20;99664.34;4469110;32;34001;-83
2022/05/10 11:58:20;;;;;;;;;;;;;;;21.57;45.49;99675.78;4466399;32;35157;-84
2022/05/10 12:01:04;;;;;;;;;;;;;;;23.08;43.96;99667.34;4466453;32;33678;-82
2022/05/10 12:03:38;;;;;;;;;;;;;;;23.77;43.17;99658.09;4452678;32;33819;-83
2022/05/10 12:06:34;;;;;;;;;;;;;;;24.62;44.31;99648.06;4465397;32;34032;-82
2022/05/10 12:09:04;;;;;;;;;;;;;;;25.56;42.09;99646.19;4463176;32;34550;-83
2022/05/10 12:11:37;;;;;;;;;;;;;;;24.83;44.56;99641.13;4466014;32;34410;-83
2022/05/10 12:22:51;;;;;;;;;;;;;;;25.59;43.38;99621.31;4482664;32;34902;-82
2022/05/10 12:25:37;;;;;;;;;;;;;;;26.01;42.76;99623.97;4482093;32;33952;-82
2022/05/10 12:28:04;;;;;;;;;;;;;;;25.61;43.20;99615.03;4481700;32;35381;-82
2022/05/10 12:30:33;;;;;;;;;;;;;;;26.22;42.99;99600.06;4468151;32;34199;-84
2022/05/10 12:33:30;;;;;;;;;;;;;;;25.86;44.65;99601.59;4442205;32;33262;-82
2022/05/10 12:36:07;;;;;;;;;;;;;;;24.30;46.45;99594.44;4483062;32;33811;-84
2022/05/10 12:38:48;;;;;;;;;;;;;;;26.00;45.16;99585.06;4469170;32;34384;-84
2022/05/10 12:41:49;;;;;;;;;;;;;;;26.03;45.93;99578.75;4468786;32;35096;-84
2022/05/10 12:44:25;;;;;;;;;;;;;;;25.69;45.34;99575.72;4457419;32;33454;-84
2022/05/10 12:47:27;;;;;;;;;;;;;;;26.16;43.56;99564.84;4482890;32;34107;-84
2022/05/10 12:49:57;;;;;;;;;;;;;;;25.76;44.88;99571.03;4448156;32;35251;-84
2022/05/10 12:52:38;;;;;;;;;;;;;;;26.31;46.21;99563.28;4483131;32;34383;-84
2022/05/10 12:55:07;;;;;;;;;;;;;;;27.03;44.68;99554.59;4470240;32;33396;-84
2022/05/10 12:57:47;;;;;;;;;;;;;;;26.79;44.84;99550.47;4459459;32;34925;-82
2022/05/10 13:00:16;;;;;;;;;;;;;;;27.10;39.74;99548.06;4468698;32;34446;-82
2022/05/10 13:02:50;;;;;;;;;;;;;;;27.48;40.89;99536.47;4483072;32;34085;-82
2022/05/10 13:05:19;;;;;;;;;;;;;;;26.95;41.60;99530.16;4454203;32;34184;-83
2022/05/10 13:07:55;;;;;;;;;;;;;;;27.64;42.92;99524.94;4481758;32;34801;-83
2022/05/10 13:10:22;;;;;;;;;;;;;;;27.69;43.16;99519.34;4483002;32;34246;-83
2022/05/10 13:12:51;;;;;;;;;;;;;;;28.56;43.13;99517.41;4474309;32;34103;-83
2022/05/10 13:15:19;;;;;;;;;;;;;;;28.95;41.74;99515.25;4476305;32;32991;-82
2022/05/10 13:17:47;;;;;;;;;;;;;;;28.63;42.55;99512.56;4481813;32;34246;-83
2022/05/10 13:20:15;;;;;;;;;;;;;;;28.68;41.21;99510.53;4482531;32;33987;-83
2022/05/10 13:22:50;;;;;;;;;;;;;;;28.73;41.75;99508.44;4468308;32;34097;-85
2022/05/10 13:25:36;;;;;;;;;;;;;;;28.70;42.20;99503.28;4468747;32;33162;-85